Ecokeeper — SVTY — position and weather

sailwx.info

Track history (hours):
 
Tides and Currents Weather Stations Pressure Air Temp Water Temp Dewpoint Dewpoint Depression Visibility Wind Speed Wind Dir Waves Ship Positions

Ecokeeper

Last reported at 2016-Aug-24 18:33 UTC. Time now 2016-Aug-24 19:42 UTC.
Position N 37°57' E 023°37'.

Length 90 m; draft 4.2 m.

Type: Tanker. MMSI: 240689000.

Date/timePositionNaut miles runAvg speedWind from/ knotsBaromVisibWave heightAir tempDewpointWater temp
2016-Aug-24 18:33N 37°57' E 023°37'0 0.0
2016-Aug-24 17:33N 37°57' E 023°37'6 5.9
2016-Aug-24 16:33N 37°52' E 023°32'1 0.7
2016-Aug-24 15:33N 37°52' E 023°31'0 0.0
2016-Aug-24 14:33N 37°52' E 023°31'0 0.0
2016-Aug-24 13:33N 37°52' E 023°31'0 0.0
2016-Aug-24 12:33N 37°52' E 023°31'0 0.0
2016-Aug-24 11:33N 37°52' E 023°31'0 0.0
2016-Aug-24 10:34N 37°52' E 023°31'0 0.0
2016-Aug-24 09:33N 37°52' E 023°31'0 0.0
2016-Aug-24 08:33N 37°52' E 023°31'0 0.0
2016-Aug-24 07:33N 37°52' E 023°31'0 0.0
2016-Aug-24 06:33N 37°52' E 023°31'6 0.4
2016-Aug-23 16:18N 37°57' E 023°34'2 3.2
2016-Aug-23 15:33N 37°57' E 023°37'0 0.0
2016-Aug-23 14:33N 37°57' E 023°37'0 0.0
2016-Aug-23 13:33N 37°57' E 023°37'0 0.0
2016-Aug-23 12:34N 37°57' E 023°37'0 0.0
2016-Aug-23 11:33N 37°57' E 023°37'0 0.0
2016-Aug-23 10:33N 37°57' E 023°37'0 0.0
2016-Aug-23 09:33N 37°57' E 023°37'5 4.5
2016-Aug-23 08:33N 37°53' E 023°33'2 2.4
2016-Aug-23 07:33N 37°51' E 023°32'0 0.0
2016-Aug-23 06:33N 37°51' E 023°32'0 0.0
2016-Aug-23 05:33N 37°51' E 023°32'0 0.0
2016-Aug-23 04:33N 37°51' E 023°32'1 1.0
2016-Aug-23 03:33N 37°52' E 023°32'6 5.9
2016-Aug-23 02:33N 37°57' E 023°37'0 0.0
2016-Aug-23 01:33N 37°57' E 023°37'0 0.0
2016-Aug-23 00:33N 37°57' E 023°37'0 0.0
2016-Aug-22 23:33N 37°57' E 023°37'0 0.0
2016-Aug-22 22:33N 37°57' E 023°37'0 0.0
2016-Aug-22 21:33N 37°57' E 023°37'0 0.0
2016-Aug-22 20:33N 37°57' E 023°37'0 0.0
2016-Aug-22 19:33N 37°57' E 023°37'0 0.0
2016-Aug-22 18:33N 37°57' E 023°37'0 0.0
2016-Aug-22 17:33N 37°57' E 023°37'0 0.0
2016-Aug-22 16:33N 37°57' E 023°37'0 0.0
2016-Aug-22 15:33N 37°57' E 023°37'0 0.0
2016-Aug-22 14:33N 37°57' E 023°37'1 0.8
2016-Aug-22 13:34N 37°56' E 023°36'6 5.9
2016-Aug-22 12:33N 37°51' E 023°32'0 0.1
2016-Aug-22 11:33N 37°51' E 023°32'0 0.0
2016-Aug-22 10:33N 37°51' E 023°32'0 0.0
2016-Aug-22 09:33N 37°51' E 023°32'0 0.0
2016-Aug-22 07:33N 37°51' E 023°32'0 0.0
2016-Aug-22 06:33N 37°51' E 023°32'4 3.9
2016-Aug-22 05:33N 37°55' E 023°34'  
2016-Aug-14 18:34N 37°57' E 023°34'  
Track history (hours):
 
Tides and Currents Weather Stations Pressure Air Temp Water Temp Dewpoint Dewpoint Depression Visibility Wind Speed Wind Dir Waves Ship Positions

Ecokeeper

Last reported at 2016-Aug-24 18:33 UTC. Time now 2016-Aug-24 19:42 UTC.
Position N 37°57' E 023°37'.

Length 90 m; draft 4.2 m.

Type: Tanker. MMSI: 240689000.

Date/timePositionNaut miles runAvg speedWind from/ knotsBaromVisibWave heightAir tempDewpointWater temp
2016-Aug-24 18:33N 37°57' E 023°37'0 0.0
2016-Aug-24 17:33N 37°57' E 023°37'6 5.9
2016-Aug-24 16:33N 37°52' E 023°32'1 0.7
2016-Aug-24 15:33N 37°52' E 023°31'0 0.0
2016-Aug-24 14:33N 37°52' E 023°31'0 0.0
2016-Aug-24 13:33N 37°52' E 023°31'0 0.0
2016-Aug-24 12:33N 37°52' E 023°31'0 0.0
2016-Aug-24 11:33N 37°52' E 023°31'0 0.0
2016-Aug-24 10:34N 37°52' E 023°31'0 0.0
2016-Aug-24 09:33N 37°52' E 023°31'0 0.0
2016-Aug-24 08:33N 37°52' E 023°31'0 0.0
2016-Aug-24 07:33N 37°52' E 023°31'0 0.0
2016-Aug-24 06:33N 37°52' E 023°31'6 0.4
2016-Aug-23 16:18N 37°57' E 023°34'2 3.2
2016-Aug-23 15:33N 37°57' E 023°37'0 0.0
2016-Aug-23 14:33N 37°57' E 023°37'0 0.0
2016-Aug-23 13:33N 37°57' E 023°37'0 0.0
2016-Aug-23 12:34N 37°57' E 023°37'0 0.0
2016-Aug-23 11:33N 37°57' E 023°37'0 0.0
2016-Aug-23 10:33N 37°57' E 023°37'0 0.0
2016-Aug-23 09:33N 37°57' E 023°37'5 4.5
2016-Aug-23 08:33N 37°53' E 023°33'2 2.4
2016-Aug-23 07:33N 37°51' E 023°32'0 0.0
2016-Aug-23 06:33N 37°51' E 023°32'0 0.0
2016-Aug-23 05:33N 37°51' E 023°32'0 0.0
2016-Aug-23 04:33N 37°51' E 023°32'1 1.0
2016-Aug-23 03:33N 37°52' E 023°32'6 5.9
2016-Aug-23 02:33N 37°57' E 023°37'0 0.0
2016-Aug-23 01:33N 37°57' E 023°37'0 0.0
2016-Aug-23 00:33N 37°57' E 023°37'0 0.0
2016-Aug-22 23:33N 37°57' E 023°37'0 0.0
2016-Aug-22 22:33N 37°57' E 023°37'0 0.0
2016-Aug-22 21:33N 37°57' E 023°37'0 0.0
2016-Aug-22 20:33N 37°57' E 023°37'0 0.0
2016-Aug-22 19:33N 37°57' E 023°37'0 0.0
2016-Aug-22 18:33N 37°57' E 023°37'0 0.0
2016-Aug-22 17:33N 37°57' E 023°37'0 0.0
2016-Aug-22 16:33N 37°57' E 023°37'0 0.0
2016-Aug-22 15:33N 37°57' E 023°37'0 0.0
2016-Aug-22 14:33N 37°57' E 023°37'1 0.8
2016-Aug-22 13:34N 37°56' E 023°36'6 5.9
2016-Aug-22 12:33N 37°51' E 023°32'0 0.1
2016-Aug-22 11:33N 37°51' E 023°32'0 0.0
2016-Aug-22 10:33N 37°51' E 023°32'0 0.0
2016-Aug-22 09:33N 37°51' E 023°32'0 0.0
2016-Aug-22 07:33N 37°51' E 023°32'0 0.0
2016-Aug-22 06:33N 37°51' E 023°32'4 3.9
2016-Aug-22 05:33N 37°55' E 023°34'  
2016-Aug-14 18:34N 37°57' E 023°34'  

Dump ship's entire track history